sensor_id;sensor_type;location;lat;lon;timestamp;P1;durP1;ratioP1;P2;durP2;ratioP2
80123;SDS011;69433;48.642;9.142;2023-06-14T00:01:43;9.43;;;5.10;;
80123;SDS011;69433;48.642;9.142;2023-06-14T00:04:10;7.45;;;5.18;;
80123;SDS011;69433;48.642;9.142;2023-06-14T00:06:35;5.55;;;4.78;;
80123;SDS011;69433;48.642;9.142;2023-06-14T00:09:02;6.45;;;4.82;;
80123;SDS011;69433;48.642;9.142;2023-06-14T00:11:27;7.15;;;5.07;;
80123;SDS011;69433;48.642;9.142;2023-06-14T00:13:53;5.85;;;4.88;;
80123;SDS011;69433;48.642;9.142;2023-06-14T00:16:18;6.95;;;5.25;;
80123;SDS011;69433;48.642;9.142;2023-06-14T00:18:44;7.28;;;5.15;;
80123;SDS011;69433;48.642;9.142;2023-06-14T00:21:10;8.05;;;5.10;;
80123;SDS011;69433;48.642;9.142;2023-06-14T00:23:37;5.82;;;5.03;;
80123;SDS011;69433;48.642;9.142;2023-06-14T00:26:02;6.95;;;4.75;;
80123;SDS011;69433;48.642;9.142;2023-06-14T00:28:28;6.20;;;4.75;;
80123;SDS011;69433;48.642;9.142;2023-06-14T00:30:53;8.15;;;5.25;;
80123;SDS011;69433;48.642;9.142;2023-06-14T00:33:18;8.32;;;5.00;;
80123;SDS011;69433;48.642;9.142;2023-06-14T00:35:46;5.57;;;4.72;;
80123;SDS011;69433;48.642;9.142;2023-06-14T00:38:12;6.25;;;5.22;;
80123;SDS011;69433;48.642;9.142;2023-06-14T00:40:37;5.80;;;4.88;;
80123;SDS011;69433;48.642;9.142;2023-06-14T00:43:10;7.13;;;4.90;;
80123;SDS011;69433;48.642;9.142;2023-06-14T00:45:35;9.25;;;4.95;;
80123;SDS011;69433;48.642;9.142;2023-06-14T00:48:00;7.30;;;4.95;;
80123;SDS011;69433;48.642;9.142;2023-06-14T00:50:27;6.78;;;4.68;;
80123;SDS011;69433;48.642;9.142;2023-06-14T00:52:54;6.82;;;4.85;;
80123;SDS011;69433;48.642;9.142;2023-06-14T00:55:20;5.50;;;4.65;;
80123;SDS011;69433;48.642;9.142;2023-06-14T00:57:45;5.85;;;5.15;;
80123;SDS011;69433;48.642;9.142;2023-06-14T01:00:11;5.40;;;4.85;;
80123;SDS011;69433;48.642;9.142;2023-06-14T01:02:38;7.95;;;5.15;;
80123;SDS011;69433;48.642;9.142;2023-06-14T01:05:04;6.85;;;4.97;;
80123;SDS011;69433;48.642;9.142;2023-06-14T01:10:16;6.40;;;5.20;;
80123;SDS011;69433;48.642;9.142;2023-06-14T01:13:15;6.80;;;4.93;;
80123;SDS011;69433;48.642;9.142;2023-06-14T01:15:44;6.03;;;5.07;;
80123;SDS011;69433;48.642;9.142;2023-06-14T01:18:10;8.32;;;4.93;;
80123;SDS011;69433;48.642;9.142;2023-06-14T01:20:50;6.30;;;4.93;;
80123;SDS011;69433;48.642;9.142;2023-06-14T01:23:16;6.65;;;5.10;;
80123;SDS011;69433;48.642;9.142;2023-06-14T01:25:44;7.32;;;5.43;;
80123;SDS011;69433;48.642;9.142;2023-06-14T01:28:10;6.82;;;5.18;;
80123;SDS011;69433;48.642;9.142;2023-06-14T01:30:38;7.75;;;5.72;;
80123;SDS011;69433;48.642;9.142;2023-06-14T01:33:07;8.18;;;5.13;;
80123;SDS011;69433;48.642;9.142;2023-06-14T01:35:33;6.85;;;5.20;;
80123;SDS011;69433;48.642;9.142;2023-06-14T01:38:05;7.15;;;4.93;;
80123;SDS011;69433;48.642;9.142;2023-06-14T01:40:31;7.60;;;4.70;;
80123;SDS011;69433;48.642;9.142;2023-06-14T01:42:59;6.30;;;4.90;;
80123;SDS011;69433;48.642;9.142;2023-06-14T01:45:36;6.70;;;5.30;;
80123;SDS011;69433;48.642;9.142;2023-06-14T01:48:01;5.85;;;4.82;;
80123;SDS011;69433;48.642;9.142;2023-06-14T01:50:28;5.80;;;5.20;;
80123;SDS011;69433;48.642;9.142;2023-06-14T01:52:56;6.90;;;5.18;;
80123;SDS011;69433;48.642;9.142;2023-06-14T01:55:22;5.60;;;4.85;;
80123;SDS011;69433;48.642;9.142;2023-06-14T01:57:49;6.15;;;5.55;;
80123;SDS011;69433;48.642;9.142;2023-06-14T02:00:16;6.93;;;5.25;;
80123;SDS011;69433;48.642;9.142;2023-06-14T02:02:43;7.40;;;5.22;;
80123;SDS011;69433;48.642;9.142;2023-06-14T02:05:09;6.65;;;5.22;;
80123;SDS011;69433;48.642;9.142;2023-06-14T02:07:35;5.78;;;5.18;;
80123;SDS011;69433;48.642;9.142;2023-06-14T02:10:03;6.22;;;4.85;;
80123;SDS011;69433;48.642;9.142;2023-06-14T02:12:29;6.25;;;4.90;;
80123;SDS011;69433;48.642;9.142;2023-06-14T02:14:54;8.23;;;5.10;;
80123;SDS011;69433;48.642;9.142;2023-06-14T02:17:21;7.70;;;5.20;;
80123;SDS011;69433;48.642;9.142;2023-06-14T02:19:47;7.15;;;5.30;;
80123;SDS011;69433;48.642;9.142;2023-06-14T02:22:13;6.68;;;5.03;;
80123;SDS011;69433;48.642;9.142;2023-06-14T02:24:40;9.15;;;5.50;;
80123;SDS011;69433;48.642;9.142;2023-06-14T02:27:05;7.13;;;5.03;;
80123;SDS011;69433;48.642;9.142;2023-06-14T02:29:31;6.43;;;4.97;;
80123;SDS011;69433;48.642;9.142;2023-06-14T02:31:56;6.22;;;5.15;;
80123;SDS011;69433;48.642;9.142;2023-06-14T02:34:22;5.82;;;5.00;;
80123;SDS011;69433;48.642;9.142;2023-06-14T02:36:47;6.57;;;5.05;;
80123;SDS011;69433;48.642;9.142;2023-06-14T02:39:13;7.28;;;5.32;;
80123;SDS011;69433;48.642;9.142;2023-06-14T02:41:38;7.05;;;5.20;;
80123;SDS011;69433;48.642;9.142;2023-06-14T02:44:04;7.25;;;5.10;;
80123;SDS011;69433;48.642;9.142;2023-06-14T02:46:30;5.00;;;4.22;;
80123;SDS011;69433;48.642;9.142;2023-06-14T02:48:55;7.07;;;5.38;;
80123;SDS011;69433;48.642;9.142;2023-06-14T02:51:20;7.28;;;5.38;;
80123;SDS011;69433;48.642;9.142;2023-06-14T02:53:45;6.03;;;4.93;;
80123;SDS011;69433;48.642;9.142;2023-06-14T02:56:11;7.45;;;4.88;;
80123;SDS011;69433;48.642;9.142;2023-06-14T02:58:37;6.53;;;4.53;;
80123;SDS011;69433;48.642;9.142;2023-06-14T03:01:03;6.70;;;5.30;;
80123;SDS011;69433;48.642;9.142;2023-06-14T03:03:30;7.13;;;4.90;;
80123;SDS011;69433;48.642;9.142;2023-06-14T03:05:56;7.78;;;4.97;;
80123;SDS011;69433;48.642;9.142;2023-06-14T03:08:21;7.47;;;4.80;;
80123;SDS011;69433;48.642;9.142;2023-06-14T03:13:16;5.83;;;4.47;;
80123;SDS011;69433;48.642;9.142;2023-06-14T03:15:42;5.70;;;4.85;;
80123;SDS011;69433;48.642;9.142;2023-06-14T03:18:08;5.93;;;5.18;;
80123;SDS011;69433;48.642;9.142;2023-06-14T03:20:45;7.47;;;4.90;;
80123;SDS011;69433;48.642;9.142;2023-06-14T03:23:11;6.60;;;4.60;;
80123;SDS011;69433;48.642;9.142;2023-06-14T03:25:37;5.78;;;4.90;;
80123;SDS011;69433;48.642;9.142;2023-06-14T03:28:03;5.15;;;4.38;;
80123;SDS011;69433;48.642;9.142;2023-06-14T03:30:35;6.40;;;4.90;;
80123;SDS011;69433;48.642;9.142;2023-06-14T03:33:01;7.28;;;4.53;;
80123;SDS011;69433;48.642;9.142;2023-06-14T03:35:26;6.57;;;4.45;;
80123;SDS011;69433;48.642;9.142;2023-06-14T03:37:52;6.18;;;4.38;;
80123;SDS011;69433;48.642;9.142;2023-06-14T03:40:18;10.02;;;4.95;;
80123;SDS011;69433;48.642;9.142;2023-06-14T03:42:45;6.43;;;4.53;;
80123;SDS011;69433;48.642;9.142;2023-06-14T03:45:10;6.65;;;4.65;;
80123;SDS011;69433;48.642;9.142;2023-06-14T03:47:35;5.45;;;4.43;;
80123;SDS011;69433;48.642;9.142;2023-06-14T03:50:04;5.55;;;4.53;;
80123;SDS011;69433;48.642;9.142;2023-06-14T03:52:30;5.40;;;3.90;;
80123;SDS011;69433;48.642;9.142;2023-06-14T03:54:56;6.10;;;4.53;;
80123;SDS011;69433;48.642;9.142;2023-06-14T03:57:21;4.97;;;4.45;;
80123;SDS011;69433;48.642;9.142;2023-06-14T03:59:49;8.18;;;4.80;;
80123;SDS011;69433;48.642;9.142;2023-06-14T04:02:14;4.55;;;4.07;;
80123;SDS011;69433;48.642;9.142;2023-06-14T04:04:41;4.25;;;3.85;;
80123;SDS011;69433;48.642;9.142;2023-06-14T04:07:09;4.72;;;4.22;;
80123;SDS011;69433;48.642;9.142;2023-06-14T04:09:39;4.88;;;4.25;;
80123;SDS011;69433;48.642;9.142;2023-06-14T04:12:07;9.00;;;4.50;;
80123;SDS011;69433;48.642;9.142;2023-06-14T04:14:39;5.18;;;4.32;;
80123;SDS011;69433;48.642;9.142;2023-06-14T04:17:05;8.30;;;4.63;;
80123;SDS011;69433;48.642;9.142;2023-06-14T04:19:31;5.55;;;4.65;;
80123;SDS011;69433;48.642;9.142;2023-06-14T04:21:57;5.90;;;4.30;;
80123;SDS011;69433;48.642;9.142;2023-06-14T04:24:26;7.32;;;4.95;;
80123;SDS011;69433;48.642;9.142;2023-06-14T04:26:56;5.93;;;4.70;;
80123;SDS011;69433;48.642;9.142;2023-06-14T04:29:23;6.45;;;4.90;;
80123;SDS011;69433;48.642;9.142;2023-06-14T04:31:51;9.30;;;4.82;;
80123;SDS011;69433;48.642;9.142;2023-06-14T04:34:18;8.43;;;5.20;;
80123;SDS011;69433;48.642;9.142;2023-06-14T04:36:43;8.00;;;4.55;;
80123;SDS011;69433;48.642;9.142;2023-06-14T04:39:20;5.88;;;5.00;;
80123;SDS011;69433;48.642;9.142;2023-06-14T04:41:46;8.75;;;5.20;;
80123;SDS011;69433;48.642;9.142;2023-06-14T04:44:12;8.52;;;5.28;;
80123;SDS011;69433;48.642;9.142;2023-06-14T04:46:37;6.50;;;4.63;;
80123;SDS011;69433;48.642;9.142;2023-06-14T04:49:10;6.55;;;5.43;;
80123;SDS011;69433;48.642;9.142;2023-06-14T04:51:40;8.25;;;5.35;;
80123;SDS011;69433;48.642;9.142;2023-06-14T04:54:06;6.10;;;4.97;;
80123;SDS011;69433;48.642;9.142;2023-06-14T04:56:37;8.43;;;5.30;;
80123;SDS011;69433;48.642;9.142;2023-06-14T04:59:02;6.30;;;5.25;;
80123;SDS011;69433;48.642;9.142;2023-06-14T05:01:30;8.00;;;5.60;;
80123;SDS011;69433;48.642;9.142;2023-06-14T05:03:57;8.13;;;5.47;;
80123;SDS011;69433;48.642;9.142;2023-06-14T05:06:23;9.80;;;5.57;;
80123;SDS011;69433;48.642;9.142;2023-06-14T05:08:48;7.60;;;5.47;;
80123;SDS011;69433;48.642;9.142;2023-06-14T05:11:13;6.25;;;5.18;;
80123;SDS011;69433;48.642;9.142;2023-06-14T05:13:39;7.85;;;5.60;;
80123;SDS011;69433;48.642;9.142;2023-06-14T05:16:06;7.38;;;5.38;;
80123;SDS011;69433;48.642;9.142;2023-06-14T05:18:31;5.93;;;5.13;;
80123;SDS011;69433;48.642;9.142;2023-06-14T05:20:59;9.65;;;5.30;;
80123;SDS011;69433;48.642;9.142;2023-06-14T05:23:24;6.78;;;5.55;;
80123;SDS011;69433;48.642;9.142;2023-06-14T05:25:49;7.00;;;5.00;;
80123;SDS011;69433;48.642;9.142;2023-06-14T05:28:15;7.07;;;5.55;;
80123;SDS011;69433;48.642;9.142;2023-06-14T05:30:41;6.47;;;5.05;;
80123;SDS011;69433;48.642;9.142;2023-06-14T05:33:06;6.72;;;5.55;;
80123;SDS011;69433;48.642;9.142;2023-06-14T05:35:32;7.28;;;5.55;;
80123;SDS011;69433;48.642;9.142;2023-06-14T05:37:57;7.15;;;5.22;;
80123;SDS011;69433;48.642;9.142;2023-06-14T05:40:22;7.50;;;5.80;;
80123;SDS011;69433;48.642;9.142;2023-06-14T05:42:47;6.88;;;5.47;;
80123;SDS011;69433;48.642;9.142;2023-06-14T05:45:13;7.68;;;5.55;;
80123;SDS011;69433;48.642;9.142;2023-06-14T05:47:40;9.98;;;5.85;;
80123;SDS011;69433;48.642;9.142;2023-06-14T05:50:06;7.40;;;5.82;;
80123;SDS011;69433;48.642;9.142;2023-06-14T05:52:33;9.65;;;5.80;;
80123;SDS011;69433;48.642;9.142;2023-06-14T05:55:00;7.53;;;5.47;;
80123;SDS011;69433;48.642;9.142;2023-06-14T05:57:26;9.77;;;5.60;;
80123;SDS011;69433;48.642;9.142;2023-06-14T05:59:51;9.60;;;5.95;;
80123;SDS011;69433;48.642;9.142;2023-06-14T06:02:17;7.55;;;5.50;;
80123;SDS011;69433;48.642;9.142;2023-06-14T06:04:42;8.40;;;5.97;;
80123;SDS011;69433;48.642;9.142;2023-06-14T06:07:07;6.82;;;5.72;;
80123;SDS011;69433;48.642;9.142;2023-06-14T06:09:32;7.30;;;5.30;;
80123;SDS011;69433;48.642;9.142;2023-06-14T06:11:58;7.55;;;5.65;;
80123;SDS011;69433;48.642;9.142;2023-06-14T06:14:23;6.13;;;5.30;;
80123;SDS011;69433;48.642;9.142;2023-06-14T06:16:50;7.43;;;6.00;;
80123;SDS011;69433;48.642;9.142;2023-06-14T06:19:17;6.95;;;5.40;;
80123;SDS011;69433;48.642;9.142;2023-06-14T06:21:43;7.03;;;5.65;;
80123;SDS011;69433;48.642;9.142;2023-06-14T06:24:08;8.02;;;5.60;;
80123;SDS011;69433;48.642;9.142;2023-06-14T06:26:33;8.35;;;5.43;;
80123;SDS011;69433;48.642;9.142;2023-06-14T06:28:58;7.38;;;5.82;;
80123;SDS011;69433;48.642;9.142;2023-06-14T06:31:31;8.35;;;5.30;;
80123;SDS011;69433;48.642;9.142;2023-06-14T06:33:56;8.63;;;5.38;;
80123;SDS011;69433;48.642;9.142;2023-06-14T06:36:21;11.70;;;5.60;;
80123;SDS011;69433;48.642;9.142;2023-06-14T06:38:53;10.20;;;5.13;;
80123;SDS011;69433;48.642;9.142;2023-06-14T06:41:18;8.02;;;5.88;;
80123;SDS011;69433;48.642;9.142;2023-06-14T06:43:44;6.72;;;5.30;;
80123;SDS011;69433;48.642;9.142;2023-06-14T06:46:10;7.85;;;5.32;;
80123;SDS011;69433;48.642;9.142;2023-06-14T06:48:35;6.47;;;5.25;;
80123;SDS011;69433;48.642;9.142;2023-06-14T06:51:01;7.57;;;5.53;;
80123;SDS011;69433;48.642;9.142;2023-06-14T06:53:26;7.65;;;5.28;;
80123;SDS011;69433;48.642;9.142;2023-06-14T06:55:51;7.50;;;5.68;;
80123;SDS011;69433;48.642;9.142;2023-06-14T06:58:16;8.23;;;5.57;;
80123;SDS011;69433;48.642;9.142;2023-06-14T07:00:44;6.55;;;5.70;;
80123;SDS011;69433;48.642;9.142;2023-06-14T07:03:11;8.65;;;5.25;;
80123;SDS011;69433;48.642;9.142;2023-06-14T07:05:36;7.45;;;5.28;;
80123;SDS011;69433;48.642;9.142;2023-06-14T07:08:02;7.55;;;5.50;;
80123;SDS011;69433;48.642;9.142;2023-06-14T07:12:57;10.02;;;5.55;;
80123;SDS011;69433;48.642;9.142;2023-06-14T07:15:22;9.80;;;5.10;;
80123;SDS011;69433;48.642;9.142;2023-06-14T07:17:47;8.20;;;5.38;;
80123;SDS011;69433;48.642;9.142;2023-06-14T07:20:13;5.78;;;5.15;;
80123;SDS011;69433;48.642;9.142;2023-06-14T07:22:42;11.88;;;5.10;;
80123;SDS011;69433;48.642;9.142;2023-06-14T07:25:11;9.00;;;5.38;;
80123;SDS011;69433;48.642;9.142;2023-06-14T07:27:39;7.20;;;5.63;;
80123;SDS011;69433;48.642;9.142;2023-06-14T07:30:07;7.70;;;5.63;;
80123;SDS011;69433;48.642;9.142;2023-06-14T07:32:33;7.25;;;5.85;;
80123;SDS011;69433;48.642;9.142;2023-06-14T07:34:59;8.35;;;5.50;;
80123;SDS011;69433;48.642;9.142;2023-06-14T07:37:24;10.20;;;5.38;;
80123;SDS011;69433;48.642;9.142;2023-06-14T07:39:49;7.45;;;5.45;;
80123;SDS011;69433;48.642;9.142;2023-06-14T07:42:15;6.82;;;5.35;;
80123;SDS011;69433;48.642;9.142;2023-06-14T07:44:40;6.85;;;5.53;;
80123;SDS011;69433;48.642;9.142;2023-06-14T07:47:05;8.20;;;5.13;;
80123;SDS011;69433;48.642;9.142;2023-06-14T07:49:36;7.03;;;5.22;;
80123;SDS011;69433;48.642;9.142;2023-06-14T07:52:02;7.50;;;5.38;;
80123;SDS011;69433;48.642;9.142;2023-06-14T07:54:28;6.25;;;5.30;;
80123;SDS011;69433;48.642;9.142;2023-06-14T07:56:54;8.68;;;4.80;;
80123;SDS011;69433;48.642;9.142;2023-06-14T07:59:21;9.50;;;5.70;;
80123;SDS011;69433;48.642;9.142;2023-06-14T08:01:46;8.15;;;5.28;;
80123;SDS011;69433;48.642;9.142;2023-06-14T08:04:13;6.05;;;4.82;;
80123;SDS011;69433;48.642;9.142;2023-06-14T08:06:39;7.80;;;5.22;;
80123;SDS011;69433;48.642;9.142;2023-06-14T08:09:04;5.78;;;5.18;;
80123;SDS011;69433;48.642;9.142;2023-06-14T08:11:33;7.00;;;5.10;;
80123;SDS011;69433;48.642;9.142;2023-06-14T08:13:59;7.63;;;5.30;;
80123;SDS011;69433;48.642;9.142;2023-06-14T08:16:24;7.43;;;5.25;;
80123;SDS011;69433;48.642;9.142;2023-06-14T08:18:49;6.32;;;5.22;;
80123;SDS011;69433;48.642;9.142;2023-06-14T08:21:15;8.98;;;5.60;;
80123;SDS011;69433;48.642;9.142;2023-06-14T08:23:40;5.78;;;4.75;;
80123;SDS011;69433;48.642;9.142;2023-06-14T08:26:08;6.10;;;4.85;;
80123;SDS011;69433;48.642;9.142;2023-06-14T08:28:34;6.05;;;5.22;;
80123;SDS011;69433;48.642;9.142;2023-06-14T08:30:59;7.00;;;5.40;;
80123;SDS011;69433;48.642;9.142;2023-06-14T08:33:25;7.40;;;5.25;;
80123;SDS011;69433;48.642;9.142;2023-06-14T08:35:50;6.13;;;4.90;;
80123;SDS011;69433;48.642;9.142;2023-06-14T08:38:15;7.03;;;5.07;;
80123;SDS011;69433;48.642;9.142;2023-06-14T08:40:41;6.75;;;4.95;;
80123;SDS011;69433;48.642;9.142;2023-06-14T08:43:07;6.30;;;4.95;;
80123;SDS011;69433;48.642;9.142;2023-06-14T08:45:32;5.88;;;4.93;;
80123;SDS011;69433;48.642;9.142;2023-06-14T08:47:57;5.78;;;4.90;;
80123;SDS011;69433;48.642;9.142;2023-06-14T08:50:24;8.55;;;5.20;;
80123;SDS011;69433;48.642;9.142;2023-06-14T08:52:55;7.20;;;4.65;;
80123;SDS011;69433;48.642;9.142;2023-06-14T08:55:22;6.30;;;4.97;;
80123;SDS011;69433;48.642;9.142;2023-06-14T08:57:52;6.05;;;4.78;;
80123;SDS011;69433;48.642;9.142;2023-06-14T09:00:26;7.53;;;5.30;;
80123;SDS011;69433;48.642;9.142;2023-06-14T09:02:52;5.63;;;4.55;;
80123;SDS011;69433;48.642;9.142;2023-06-14T09:05:23;8.30;;;4.93;;
80123;SDS011;69433;48.642;9.142;2023-06-14T09:07:49;6.10;;;4.70;;
80123;SDS011;69433;48.642;9.142;2023-06-14T09:10:15;6.95;;;4.80;;
80123;SDS011;69433;48.642;9.142;2023-06-14T09:12:41;6.55;;;5.05;;
80123;SDS011;69433;48.642;9.142;2023-06-14T09:15:07;5.72;;;4.68;;
80123;SDS011;69433;48.642;9.142;2023-06-14T09:17:37;5.10;;;4.40;;
80123;SDS011;69433;48.642;9.142;2023-06-14T09:20:15;7.20;;;4.65;;
80123;SDS011;69433;48.642;9.142;2023-06-14T09:22:44;5.80;;;4.38;;
80123;SDS011;69433;48.642;9.142;2023-06-14T09:25:09;5.32;;;4.40;;
80123;SDS011;69433;48.642;9.142;2023-06-14T09:27:37;5.20;;;4.70;;
80123;SDS011;69433;48.642;9.142;2023-06-14T09:30:12;5.10;;;4.60;;
80123;SDS011;69433;48.642;9.142;2023-06-14T09:32:41;5.97;;;4.60;;
80123;SDS011;69433;48.642;9.142;2023-06-14T09:35:06;6.68;;;4.70;;
80123;SDS011;69433;48.642;9.142;2023-06-14T09:37:33;5.55;;;4.40;;
80123;SDS011;69433;48.642;9.142;2023-06-14T09:39:59;5.95;;;4.80;;
80123;SDS011;69433;48.642;9.142;2023-06-14T09:42:25;7.43;;;5.07;;
80123;SDS011;69433;48.642;9.142;2023-06-14T09:44:54;5.15;;;4.53;;
80123;SDS011;69433;48.642;9.142;2023-06-14T09:47:30;5.85;;;4.63;;
80123;SDS011;69433;48.642;9.142;2023-06-14T09:49:56;5.50;;;4.25;;
80123;SDS011;69433;48.642;9.142;2023-06-14T09:52:21;5.53;;;4.85;;
80123;SDS011;69433;48.642;9.142;2023-06-14T09:54:49;5.97;;;4.90;;
80123;SDS011;69433;48.642;9.142;2023-06-14T09:57:23;5.82;;;4.30;;
80123;SDS011;69433;48.642;9.142;2023-06-14T09:59:58;6.10;;;4.20;;
80123;SDS011;69433;48.642;9.142;2023-06-14T10:02:30;6.38;;;4.68;;
80123;SDS011;69433;48.642;9.142;2023-06-14T10:10:16;6.22;;;4.45;;
80123;SDS011;69433;48.642;9.142;2023-06-14T10:12:41;6.82;;;4.70;;
80123;SDS011;69433;48.642;9.142;2023-06-14T10:15:14;6.60;;;4.80;;
80123;SDS011;69433;48.642;9.142;2023-06-14T10:17:47;6.07;;;4.30;;
80123;SDS011;69433;48.642;9.142;2023-06-14T10:20:23;5.18;;;4.43;;
80123;SDS011;69433;48.642;9.142;2023-06-14T10:22:58;6.95;;;4.80;;
80123;SDS011;69433;48.642;9.142;2023-06-14T10:25:29;5.72;;;4.57;;
80123;SDS011;69433;48.642;9.142;2023-06-14T10:31:06;5.10;;;4.50;;
80123;SDS011;69433;48.642;9.142;2023-06-14T10:33:33;6.22;;;4.38;;
80123;SDS011;69433;48.642;9.142;2023-06-14T10:36:10;4.97;;;4.32;;
80123;SDS011;69433;48.642;9.142;2023-06-14T10:38:38;6.40;;;4.88;;
80123;SDS011;69433;48.642;9.142;2023-06-14T10:41:04;5.93;;;4.47;;
80123;SDS011;69433;48.642;9.142;2023-06-14T10:43:30;6.13;;;4.47;;
80123;SDS011;69433;48.642;9.142;2023-06-14T10:46:15;6.28;;;4.18;;
80123;SDS011;69433;48.642;9.142;2023-06-14T10:48:42;6.10;;;4.50;;
80123;SDS011;69433;48.642;9.142;2023-06-14T10:51:19;7.03;;;4.18;;
80123;SDS011;69433;48.642;9.142;2023-06-14T10:53:46;6.20;;;4.50;;
80123;SDS011;69433;48.642;9.142;2023-06-14T10:56:32;5.50;;;4.40;;
80123;SDS011;69433;48.642;9.142;2023-06-14T10:58:57;6.93;;;4.40;;
80123;SDS011;69433;48.642;9.142;2023-06-14T11:01:28;5.35;;;4.13;;
80123;SDS011;69433;48.642;9.142;2023-06-14T11:04:06;7.55;;;4.18;;
80123;SDS011;69433;48.642;9.142;2023-06-14T11:06:54;8.82;;;4.97;;
80123;SDS011;69433;48.642;9.142;2023-06-14T11:10:01;7.43;;;4.45;;
80123;SDS011;69433;48.642;9.142;2023-06-14T11:12:46;6.18;;;4.72;;
80123;SDS011;69433;48.642;9.142;2023-06-14T11:15:13;5.57;;;4.45;;
80123;SDS011;69433;48.642;9.142;2023-06-14T11:18:02;7.85;;;4.80;;
80123;SDS011;69433;48.642;9.142;2023-06-14T11:20:30;7.43;;;4.50;;
80123;SDS011;69433;48.642;9.142;2023-06-14T11:22:57;5.60;;;4.80;;
80123;SDS011;69433;48.642;9.142;2023-06-14T11:25:23;5.55;;;4.18;;
80123;SDS011;69433;48.642;9.142;2023-06-14T11:27:49;5.60;;;4.68;;
80123;SDS011;69433;48.642;9.142;2023-06-14T11:30:15;6.32;;;4.68;;
80123;SDS011;69433;48.642;9.142;2023-06-14T11:32:42;7.72;;;4.82;;
80123;SDS011;69433;48.642;9.142;2023-06-14T11:35:11;5.28;;;4.55;;
80123;SDS011;69433;48.642;9.142;2023-06-14T11:37:36;6.68;;;4.35;;
80123;SDS011;69433;48.642;9.142;2023-06-14T11:40:03;7.47;;;4.78;;
80123;SDS011;69433;48.642;9.142;2023-06-14T11:44:59;6.43;;;4.60;;
80123;SDS011;69433;48.642;9.142;2023-06-14T11:47:31;6.05;;;4.90;;
80123;SDS011;69433;48.642;9.142;2023-06-14T11:49:59;7.10;;;4.75;;
80123;SDS011;69433;48.642;9.142;2023-06-14T11:52:25;6.82;;;4.70;;
80123;SDS011;69433;48.642;9.142;2023-06-14T11:54:51;6.80;;;4.82;;
80123;SDS011;69433;48.642;9.142;2023-06-14T11:57:18;6.47;;;4.88;;
80123;SDS011;69433;48.642;9.142;2023-06-14T11:59:44;8.13;;;5.30;;
80123;SDS011;69433;48.642;9.142;2023-06-14T12:04:54;6.03;;;4.82;;
80123;SDS011;69433;48.642;9.142;2023-06-14T12:07:19;6.55;;;4.82;;
80123;SDS011;69433;48.642;9.142;2023-06-14T12:12:22;5.78;;;4.82;;
80123;SDS011;69433;48.642;9.142;2023-06-14T12:14:50;6.18;;;5.25;;
80123;SDS011;69433;48.642;9.142;2023-06-14T12:17:16;6.72;;;4.72;;
80123;SDS011;69433;48.642;9.142;2023-06-14T12:19:43;6.05;;;4.47;;
80123;SDS011;69433;48.642;9.142;2023-06-14T12:22:10;7.70;;;5.18;;
80123;SDS011;69433;48.642;9.142;2023-06-14T12:24:35;6.13;;;4.82;;
80123;SDS011;69433;48.642;9.142;2023-06-14T12:27:01;6.28;;;4.85;;
80123;SDS011;69433;48.642;9.142;2023-06-14T12:29:30;6.07;;;4.78;;
80123;SDS011;69433;48.642;9.142;2023-06-14T12:31:56;5.63;;;4.63;;
80123;SDS011;69433;48.642;9.142;2023-06-14T12:34:25;10.35;;;5.28;;
80123;SDS011;69433;48.642;9.142;2023-06-14T12:36:52;7.82;;;4.70;;
80123;SDS011;69433;48.642;9.142;2023-06-14T12:39:20;7.60;;;4.85;;
80123;SDS011;69433;48.642;9.142;2023-06-14T12:41:48;9.18;;;5.32;;
80123;SDS011;69433;48.642;9.142;2023-06-14T12:44:14;6.78;;;5.10;;
80123;SDS011;69433;48.642;9.142;2023-06-14T12:46:40;6.35;;;5.20;;
80123;SDS011;69433;48.642;9.142;2023-06-14T12:49:10;6.10;;;4.60;;
80123;SDS011;69433;48.642;9.142;2023-06-14T12:51:36;6.20;;;4.53;;
80123;SDS011;69433;48.642;9.142;2023-06-14T12:54:04;5.57;;;5.00;;
80123;SDS011;69433;48.642;9.142;2023-06-14T12:56:29;9.75;;;5.10;;
80123;SDS011;69433;48.642;9.142;2023-06-14T12:58:55;6.40;;;4.95;;
80123;SDS011;69433;48.642;9.142;2023-06-14T13:01:20;6.03;;;4.60;;
80123;SDS011;69433;48.642;9.142;2023-06-14T13:03:48;5.85;;;4.53;;
80123;SDS011;69433;48.642;9.142;2023-06-14T13:06:17;7.25;;;5.20;;
80123;SDS011;69433;48.642;9.142;2023-06-14T13:08:43;6.72;;;4.78;;
80123;SDS011;69433;48.642;9.142;2023-06-14T13:11:08;9.43;;;4.95;;
80123;SDS011;69433;48.642;9.142;2023-06-14T13:13:34;6.07;;;4.85;;
80123;SDS011;69433;48.642;9.142;2023-06-14T13:15:59;7.88;;;4.75;;
80123;SDS011;69433;48.642;9.142;2023-06-14T13:18:27;6.97;;;4.95;;
80123;SDS011;69433;48.642;9.142;2023-06-14T13:20:52;5.65;;;4.80;;
80123;SDS011;69433;48.642;9.142;2023-06-14T13:23:17;5.80;;;4.55;;
80123;SDS011;69433;48.642;9.142;2023-06-14T13:25:43;5.78;;;4.78;;
80123;SDS011;69433;48.642;9.142;2023-06-14T13:28:08;5.65;;;4.97;;
80123;SDS011;69433;48.642;9.142;2023-06-14T13:30:39;5.95;;;4.65;;
80123;SDS011;69433;48.642;9.142;2023-06-14T13:33:04;5.05;;;4.55;;
80123;SDS011;69433;48.642;9.142;2023-06-14T13:35:29;9.00;;;4.82;;
80123;SDS011;69433;48.642;9.142;2023-06-14T13:37:55;8.77;;;4.60;;
80123;SDS011;69433;48.642;9.142;2023-06-14T13:40:20;6.43;;;4.60;;
80123;SDS011;69433;48.642;9.142;2023-06-14T13:42:46;7.88;;;4.60;;
80123;SDS011;69433;48.642;9.142;2023-06-14T13:45:11;4.95;;;4.43;;
80123;SDS011;69433;48.642;9.142;2023-06-14T13:47:38;7.32;;;4.53;;
80123;SDS011;69433;48.642;9.142;2023-06-14T13:50:03;5.47;;;4.63;;
80123;SDS011;69433;48.642;9.142;2023-06-14T13:52:29;5.95;;;4.25;;
80123;SDS011;69433;48.642;9.142;2023-06-14T13:54:55;7.30;;;4.60;;
80123;SDS011;69433;48.642;9.142;2023-06-14T13:57:20;6.45;;;5.03;;
80123;SDS011;69433;48.642;9.142;2023-06-14T13:59:46;7.22;;;4.70;;
80123;SDS011;69433;48.642;9.142;2023-06-14T14:02:11;4.60;;;4.15;;
80123;SDS011;69433;48.642;9.142;2023-06-14T14:04:37;5.22;;;4.45;;
80123;SDS011;69433;48.642;9.142;2023-06-14T14:07:03;6.03;;;4.25;;
80123;SDS011;69433;48.642;9.142;2023-06-14T14:09:30;8.65;;;4.93;;
80123;SDS011;69433;48.642;9.142;2023-06-14T14:11:56;5.82;;;4.47;;
80123;SDS011;69433;48.642;9.142;2023-06-14T14:14:23;4.70;;;4.20;;
80123;SDS011;69433;48.642;9.142;2023-06-14T14:16:55;5.82;;;4.63;;
80123;SDS011;69433;48.642;9.142;2023-06-14T14:19:21;5.15;;;4.63;;
80123;SDS011;69433;48.642;9.142;2023-06-14T14:21:47;6.82;;;4.43;;
80123;SDS011;69433;48.642;9.142;2023-06-14T14:24:18;5.00;;;4.50;;
80123;SDS011;69433;48.642;9.142;2023-06-14T14:26:44;6.80;;;4.55;;
80123;SDS011;69433;48.642;9.142;2023-06-14T14:29:09;7.43;;;5.28;;
80123;SDS011;69433;48.642;9.142;2023-06-14T14:31:36;6.40;;;4.50;;
80123;SDS011;69433;48.642;9.142;2023-06-14T14:34:02;6.15;;;4.57;;
80123;SDS011;69433;48.642;9.142;2023-06-14T14:36:27;5.38;;;4.28;;
80123;SDS011;69433;48.642;9.142;2023-06-14T14:38:52;5.85;;;4.75;;
80123;SDS011;69433;48.642;9.142;2023-06-14T14:41:18;5.53;;;4.50;;
80123;SDS011;69433;48.642;9.142;2023-06-14T14:43:44;5.40;;;4.53;;
80123;SDS011;69433;48.642;9.142;2023-06-14T14:46:09;7.47;;;4.90;;
80123;SDS011;69433;48.642;9.142;2023-06-14T14:48:34;7.15;;;4.90;;
80123;SDS011;69433;48.642;9.142;2023-06-14T14:51:01;6.55;;;4.80;;
80123;SDS011;69433;48.642;9.142;2023-06-14T14:53:27;10.05;;;4.90;;
80123;SDS011;69433;48.642;9.142;2023-06-14T14:55:53;9.10;;;4.80;;
80123;SDS011;69433;48.642;9.142;2023-06-14T14:58:18;7.35;;;4.63;;
80123;SDS011;69433;48.642;9.142;2023-06-14T15:00:45;6.32;;;4.53;;
80123;SDS011;69433;48.642;9.142;2023-06-14T15:03:10;6.20;;;4.18;;
80123;SDS011;69433;48.642;9.142;2023-06-14T15:05:36;13.30;;;4.70;;
80123;SDS011;69433;48.642;9.142;2023-06-14T15:08:02;7.25;;;4.78;;
80123;SDS011;69433;48.642;9.142;2023-06-14T15:10:28;7.32;;;4.70;;
80123;SDS011;69433;48.642;9.142;2023-06-14T15:12:53;6.32;;;4.40;;